createdAt,value
2022-08-05T00:01:00.951Z,95195.09
2022-08-05T00:04:21.758Z,95189.94
2022-08-05T00:08:00.800Z,95194.63
2022-08-05T00:10:51.747Z,95183.91
2022-08-05T00:13:55.032Z,95188.16
2022-08-05T00:16:58.632Z,95183.28
2022-08-05T00:20:06.188Z,95183.19
2022-08-05T00:23:12.834Z,95183.41
2022-08-05T00:26:17.186Z,95178.38
2022-08-05T00:29:25.279Z,95173.31
2022-08-05T00:32:28.995Z,95177.63
2022-08-05T00:35:32.986Z,95171.25
2022-08-05T00:38:39.762Z,95178.44
2022-08-05T00:41:55.184Z,95179.63
2022-08-05T00:44:58.864Z,95181.72
2022-08-05T00:48:05.379Z,95188.09
2022-08-05T00:51:51.219Z,95183.22
2022-08-05T00:54:33.566Z,95173.88
2022-08-05T00:57:38.450Z,95170.97
2022-08-05T01:00:59.234Z,95180.66
2022-08-05T01:04:02.502Z,95181.22
2022-08-05T01:07:15.047Z,95172.34
2022-08-05T01:10:28.835Z,95189.59
2022-08-05T01:13:57.885Z,95178.59
2022-08-05T01:17:05.955Z,95182.13
2022-08-05T01:20:27.447Z,95171.41
2022-08-05T01:23:53.007Z,95181.28
2022-08-05T01:27:19.078Z,95181.13
2022-08-05T01:30:34.323Z,95176.09
2022-08-05T01:33:49.229Z,95175.56
2022-08-05T01:37:03.442Z,95170.34
2022-08-05T01:40:09.780Z,95180.94
2022-08-05T01:43:22.233Z,95182.78
2022-08-05T01:46:42.154Z,95195.47
2022-08-05T01:50:01.450Z,95169.31
2022-08-05T01:53:11.191Z,95186.25
2022-08-05T01:58:15.376Z,95187.88
2022-08-05T01:59:41.900Z,95187.38
2022-08-05T02:02:59.531Z,95186.50
2022-08-05T02:06:33.328Z,95185.72
2022-08-05T02:09:31.972Z,95183.84
2022-08-05T02:12:39.868Z,95192.78
2022-08-05T02:15:47.964Z,95188.38
2022-08-05T02:18:59.950Z,95173.03
2022-08-05T02:22:10.969Z,95170.75
2022-08-05T02:25:33.357Z,95160.56
2022-08-05T02:28:46.036Z,95162.56
2022-08-05T02:31:51.552Z,95184.53
2022-08-05T02:35:13.550Z,95176.41
2022-08-05T02:38:19.344Z,95174.00
2022-08-05T02:41:28.865Z,95175.00
2022-08-05T02:44:47.722Z,95173.56
2022-08-05T02:48:11.553Z,95176.97
2022-08-05T02:51:18.443Z,95168.47
2022-08-05T02:54:35.768Z,95158.69
2022-08-05T02:58:09.288Z,95174.22
2022-08-05T03:01:04.853Z,95170.03
2022-08-05T03:04:14.290Z,95170.91
2022-08-05T03:08:00.912Z,95175.72
2022-08-05T03:11:41.286Z,95177.66
2022-08-05T03:14:09.160Z,95168.00
2022-08-05T03:17:16.470Z,95179.16
2022-08-05T03:20:19.605Z,95180.44
2022-08-05T03:23:25.483Z,95178.25
2022-08-05T03:26:30.913Z,95185.97
2022-08-05T03:29:45.325Z,95183.78
2022-08-05T03:32:59.506Z,95172.03
2022-08-05T03:36:02.866Z,95177.00
2022-08-05T03:39:12.921Z,95177.03
2022-08-05T03:42:16.373Z,95183.78
2022-08-05T03:45:22.505Z,95179.50
2022-08-05T03:48:27.187Z,95178.63
2022-08-05T03:52:39.253Z,95175.44
2022-08-05T03:56:01.993Z,95180.88
2022-08-05T03:58:34.203Z,95182.56
2022-08-05T04:01:40.974Z,95182.72
2022-08-05T04:04:45.689Z,95189.34
2022-08-05T04:07:58.378Z,95182.97
2022-08-05T04:11:04.064Z,95179.16
2022-08-05T04:14:07.570Z,95174.28
2022-08-05T04:17:12.113Z,95184.38
2022-08-05T04:20:23.088Z,95185.63
2022-08-05T04:24:04.884Z,95182.31
2022-08-05T04:26:52.748Z,95179.00
2022-08-05T04:29:56.103Z,95181.00
2022-08-05T04:33:00.311Z,95177.44
2022-08-05T04:36:04.988Z,95180.56
2022-08-05T04:39:21.089Z,95181.72
2022-08-05T04:42:26.285Z,95178.69
2022-08-05T04:45:48.648Z,95183.13
2022-08-05T04:48:53.722Z,95186.72
2022-08-05T04:52:00.229Z,95170.31
2022-08-05T04:55:14.675Z,95166.03
2022-08-05T04:58:22.451Z,95166.34
2022-08-05T05:02:05.574Z,95177.06
2022-08-05T05:04:50.613Z,95175.34
2022-08-05T05:07:56.469Z,95177.13
2022-08-05T05:11:05.145Z,95168.06
2022-08-05T05:14:10.051Z,95158.91
2022-08-05T05:17:23.957Z,95178.97
2022-08-05T05:20:28.284Z,95173.16
2022-08-05T05:23:39.144Z,95173.28
2022-08-05T05:26:55.622Z,95162.56
2022-08-05T05:30:04.129Z,95168.50
2022-08-05T05:33:17.156Z,95155.50
2022-08-05T05:36:20.603Z,95172.66
2022-08-05T05:39:26.536Z,95169.16
2022-08-05T05:42:37.685Z,95177.03
2022-08-05T05:45:48.143Z,95146.72
2022-08-05T05:48:51.657Z,95179.47
2022-08-05T05:51:56.503Z,95172.81
2022-08-05T05:55:01.794Z,95169.91
2022-08-05T05:58:10.655Z,95175.06
2022-08-05T06:01:15.513Z,95177.19
2022-08-05T06:04:18.687Z,95180.47
2022-08-05T06:07:25.376Z,95178.22
2022-08-05T06:10:52.406Z,95177.78
2022-08-05T06:13:55.996Z,95183.00
2022-08-05T06:17:02.133Z,95179.69
2022-08-05T06:20:24.373Z,95181.53
2022-08-05T06:23:43.762Z,95179.34
2022-08-05T06:26:51.703Z,95187.88
2022-08-05T06:30:04.338Z,95188.00
2022-08-05T06:34:06.210Z,95187.69
2022-08-05T06:36:56.680Z,95184.00
2022-08-05T06:40:02.538Z,95184.00
2022-08-05T06:43:05.814Z,95181.53
2022-08-05T06:46:29.789Z,95180.59
2022-08-05T06:50:00.701Z,95183.28
2022-08-05T06:52:58.787Z,95170.66
2022-08-05T06:56:07.725Z,95163.25
2022-08-05T06:59:28.779Z,95172.72
2022-08-05T07:02:45.207Z,95172.91
2022-08-05T07:05:52.380Z,95162.84
2022-08-05T07:09:00.303Z,95170.34
2022-08-05T07:12:07.624Z,95170.25
2022-08-05T07:15:34.442Z,95173.75
2022-08-05T07:18:52.408Z,95172.19
2022-08-05T07:21:59.355Z,95171.19
2022-08-05T07:25:22.921Z,95176.16
2022-08-05T07:28:27.523Z,95165.84
2022-08-05T07:31:41.015Z,95167.97
2022-08-05T07:34:57.977Z,95168.06
2022-08-05T07:38:03.118Z,95173.41
2022-08-05T07:42:07.698Z,95157.72
2022-08-05T07:44:32.869Z,95161.63
2022-08-05T07:47:42.611Z,95163.53
2022-08-05T07:50:45.816Z,95167.53
2022-08-05T07:53:51.605Z,95157.78
2022-08-05T07:57:01.793Z,95162.97
2022-08-05T08:00:19.043Z,95164.31
2022-08-05T08:03:22.100Z,95165.88
2022-08-05T08:06:28.169Z,95168.91
2022-08-05T08:09:32.918Z,95160.31
2022-08-05T08:12:49.351Z,95154.94
2022-08-05T08:16:34.643Z,95158.72
2022-08-05T08:20:00.365Z,95162.22
2022-08-05T08:22:41.297Z,95152.69
2022-08-05T08:26:00.145Z,95154.34
2022-08-05T08:29:45.538Z,95155.63
2022-08-05T08:32:28.650Z,95150.56
2022-08-05T08:35:35.203Z,95149.00
2022-08-05T08:38:53.286Z,95151.31
2022-08-05T08:42:02.218Z,95137.19
2022-08-05T08:45:19.143Z,95138.91
2022-08-05T08:49:02.443Z,95141.00
2022-08-05T08:52:03.741Z,95142.13
2022-08-05T08:55:13.467Z,95146.78
2022-08-05T08:58:36.895Z,95132.28
2022-08-05T09:01:43.073Z,95136.66
2022-08-05T09:05:16.714Z,95128.50
2022-08-05T09:08:21.179Z,95128.47
2022-08-05T09:11:52.808Z,95127.22
2022-08-05T09:14:59.646Z,95120.09
2022-08-05T09:18:09.780Z,95096.47
2022-08-05T09:21:20.796Z,95118.19
2022-08-05T09:24:24.400Z,95106.50
2022-08-05T09:28:05.293Z,95109.25
2022-08-05T09:31:22.252Z,95095.94
2022-08-05T09:34:28.227Z,95090.69
2022-08-05T09:38:11.991Z,95094.31
2022-08-05T09:40:56.709Z,95079.78
2022-08-05T09:44:00.088Z,95089.88
2022-08-05T09:47:15.388Z,95081.16
2022-08-05T09:50:38.071Z,95078.38
2022-08-05T09:53:59.257Z,95082.97
2022-08-05T09:57:03.727Z,95070.41
2022-08-05T10:00:26.046Z,95080.47
2022-08-05T10:03:56.968Z,95063.34
2022-08-05T10:06:58.999Z,95074.47
2022-08-05T10:10:13.868Z,95062.66
2022-08-05T10:13:44.016Z,95065.91
2022-08-05T10:16:52.983Z,95060.41
2022-08-05T10:20:03.100Z,95058.69
2022-08-05T10:23:08.804Z,95058.50
2022-08-05T10:26:32.328Z,95056.25
2022-08-05T10:30:06.881Z,95049.19
2022-08-05T10:33:03.031Z,95046.84
2022-08-05T10:36:08.137Z,95050.09
2022-08-05T10:39:25.117Z,95046.50
2022-08-05T10:42:43.638Z,95046.03
2022-08-05T10:46:06.735Z,95039.00
2022-08-05T10:49:16.939Z,95035.53
2022-08-05T10:52:49.604Z,95032.72
2022-08-05T10:56:07.967Z,95030.13
2022-08-05T11:00:04.098Z,95037.09
2022-08-05T11:03:24.646Z,95020.06
2022-08-05T11:06:31.216Z,95009.34
2022-08-05T11:09:46.544Z,95021.41
2022-08-05T11:12:50.763Z,95016.47
2022-08-05T11:16:47.369Z,95012.16
2022-08-05T11:20:11.535Z,64590.91
2022-08-05T11:23:33.343Z,64590.91
2022-08-05T11:27:28.134Z,64590.91
2022-08-05T11:31:54.260Z,64590.91
2022-08-05T11:34:54.068Z,64590.91
2022-08-05T11:38:36.951Z,64590.91
2022-08-05T11:41:58.304Z,64590.91
2022-08-05T11:45:02.564Z,64590.91
2022-08-05T11:48:11.573Z,64590.91
2022-08-05T11:51:44.002Z,64590.91
2022-08-05T11:54:41.456Z,94992.31
2022-08-05T11:58:10.188Z,94991.00
2022-08-05T12:01:11.654Z,94984.56
2022-08-05T12:04:16.175Z,94979.53
2022-08-05T12:08:02.709Z,94983.53
2022-08-05T12:10:46.060Z,94972.56
2022-08-05T12:13:58.541Z,94966.53
2022-08-05T12:17:14.561Z,94970.81
2022-08-05T12:20:38.496Z,94969.00
2022-08-05T12:23:42.879Z,94968.09
2022-08-05T12:26:50.068Z,94965.66
2022-08-05T12:30:04.747Z,94962.09
2022-08-05T12:33:27.720Z,94948.66
2022-08-05T12:36:33.241Z,94960.41
2022-08-05T12:39:38.535Z,94959.22
2022-08-05T12:42:42.043Z,94952.94
2022-08-05T12:45:56.148Z,94950.94
2022-08-05T12:49:01.483Z,94952.44
2022-08-05T12:52:25.337Z,94945.84
2022-08-05T12:55:35.357Z,94938.78
2022-08-05T12:58:53.065Z,94936.47
2022-08-05T13:02:07.511Z,94936.38
2022-08-05T13:05:14.426Z,94946.56
2022-08-05T13:08:20.798Z,94946.19
2022-08-05T13:12:01.326Z,94943.41
2022-08-05T13:15:06.748Z,94928.41
2022-08-05T13:18:11.562Z,94921.78
2022-08-05T13:21:23.363Z,94922.78
2022-08-05T13:24:51.358Z,94916.09
2022-08-05T13:27:57.470Z,94917.13
2022-08-05T13:31:03.282Z,94916.25
2022-08-05T13:34:25.005Z,94925.13
2022-08-05T13:37:34.419Z,94910.88
2022-08-05T13:40:48.188Z,94913.72
2022-08-05T13:43:55.411Z,94907.75
2022-08-05T13:47:04.538Z,94907.47
2022-08-05T13:50:16.518Z,94908.34
2022-08-05T13:53:20.144Z,94904.63
2022-08-05T13:56:24.627Z,94905.66
2022-08-05T13:59:30.662Z,94913.84
2022-08-05T14:02:34.001Z,94894.38
2022-08-05T14:06:19.184Z,94901.16
2022-08-05T14:09:00.882Z,94894.44
2022-08-05T14:12:17.554Z,94900.50
2022-08-05T14:16:08.320Z,94883.41
2022-08-05T14:18:53.665Z,94866.56
2022-08-05T14:22:09.064Z,94883.31
2022-08-05T14:25:21.635Z,94886.63
2022-08-05T14:28:27.702Z,94882.75
2022-08-05T14:31:54.368Z,94881.78
2022-08-05T14:34:54.736Z,94882.41
2022-08-05T14:38:01.061Z,94885.97
2022-08-05T14:41:07.729Z,94886.81
2022-08-05T14:44:20.455Z,94880.06
2022-08-05T14:48:05.210Z,94876.72
2022-08-05T14:50:48.207Z,94875.88
2022-08-05T14:54:25.827Z,94867.97
2022-08-05T14:57:15.975Z,94855.59
2022-08-05T15:00:22.113Z,94863.50
2022-08-05T15:03:38.871Z,94864.63
2022-08-05T15:06:42.543Z,94860.16
2022-08-05T15:09:54.451Z,94850.03
2022-08-05T15:13:03.329Z,94852.91
2022-08-05T15:16:11.896Z,94845.88
2022-08-05T15:19:23.937Z,94845.75
2022-08-05T15:22:27.863Z,94845.63
2022-08-05T15:25:41.336Z,94847.63
2022-08-05T15:28:57.156Z,94839.47
2022-08-05T15:32:03.309Z,94838.28
2022-08-05T15:35:12.542Z,94841.47
2022-08-05T15:38:34.570Z,94835.13
2022-08-05T15:41:55.492Z,94834.94
2022-08-05T15:45:00.989Z,94839.28
2022-08-05T15:48:06.820Z,94837.78
2022-08-05T15:51:14.539Z,94835.03
2022-08-05T15:54:19.550Z,94838.34
2022-08-05T15:57:23.055Z,94834.59
2022-08-05T16:00:42.939Z,94830.13
2022-08-05T16:03:51.102Z,94836.81
2022-08-05T16:06:55.868Z,94833.53
2022-08-05T16:09:59.462Z,94831.63
2022-08-05T16:13:02.623Z,94836.13
2022-08-05T16:16:06.207Z,94828.06
2022-08-05T16:19:10.880Z,94841.88
2022-08-05T16:22:27.842Z,94834.06
2022-08-05T16:25:37.240Z,94843.25
2022-08-05T16:28:41.413Z,94840.09
2022-08-05T16:31:57.084Z,94842.16
2022-08-05T16:35:02.130Z,94845.09
2022-08-05T16:38:23.664Z,94848.31
2022-08-05T16:42:27.780Z,94844.22
2022-08-05T16:44:54.308Z,94838.22
2022-08-05T16:48:03.041Z,94838.75
2022-08-05T16:51:09.437Z,94850.19
2022-08-05T16:54:17.492Z,94849.84
2022-08-05T16:57:53.334Z,94860.03
2022-08-05T17:00:49.529Z,94855.91
2022-08-05T17:03:53.005Z,94861.88
2022-08-05T17:07:01.075Z,94855.22
2022-08-05T17:10:04.904Z,94855.16
2022-08-05T17:13:17.067Z,94865.63
2022-08-05T17:16:33.592Z,94866.25
2022-08-05T17:19:39.430Z,94863.88
2022-08-05T17:22:44.952Z,94865.44
2022-08-05T17:25:48.118Z,94870.34
2022-08-05T17:28:51.952Z,94872.81
2022-08-05T17:31:58.270Z,94876.00
2022-08-05T17:35:02.394Z,94878.75
2022-08-05T17:38:11.833Z,94884.13
2022-08-05T17:42:16.375Z,94886.13
2022-08-05T17:44:50.442Z,94881.03
2022-08-05T17:47:56.186Z,94870.31
2022-08-05T17:50:59.439Z,94884.00
2022-08-05T17:54:05.843Z,94882.44
2022-08-05T17:57:12.213Z,94887.03
2022-08-05T18:00:16.217Z,94876.47
2022-08-05T18:06:45.653Z,94902.25
2022-08-05T18:09:59.161Z,94906.34
2022-08-05T18:13:12.277Z,94903.06
2022-08-05T18:16:20.237Z,94906.53
2022-08-05T18:19:25.850Z,94907.34
2022-08-05T18:22:46.221Z,94914.78
2022-08-05T18:25:57.766Z,94916.25
2022-08-05T18:29:02.726Z,94906.03
2022-08-05T18:32:06.493Z,94922.66
2022-08-05T18:35:16.975Z,94916.41
2022-08-05T18:38:25.911Z,94914.13
2022-08-05T18:41:53.654Z,94913.03
2022-08-05T18:44:56.175Z,94912.03
2022-08-05T18:48:00.592Z,94903.97
2022-08-05T18:52:06.651Z,94923.47
2022-08-05T18:54:48.836Z,94918.88
2022-08-05T18:57:54.143Z,94921.88
2022-08-05T19:01:06.580Z,94936.56
2022-08-05T19:04:24.200Z,94935.53
2022-08-05T19:07:29.862Z,94935.06
2022-08-05T19:10:48.824Z,94942.66
2022-08-05T19:14:00.999Z,94933.34
2022-08-05T19:17:07.692Z,94935.03
2022-08-05T19:20:12.667Z,94928.38
2022-08-05T19:24:04.235Z,94931.47
2022-08-05T19:26:54.847Z,94928.09
2022-08-05T19:30:03.318Z,94923.31
2022-08-05T19:33:11.276Z,94931.97
2022-08-05T19:36:20.234Z,94924.75
2022-08-05T19:39:24.202Z,94932.53
2022-08-05T19:42:36.084Z,94939.16
2022-08-05T19:45:54.289Z,94922.34
2022-08-05T19:48:57.865Z,94933.91
2022-08-05T19:52:30.481Z,94941.06
2022-08-05T19:56:14.452Z,94942.72
2022-08-05T19:58:54.019Z,94940.63
2022-08-05T20:01:58.932Z,94941.16
2022-08-05T20:05:04.887Z,94938.06
2022-08-05T20:08:12.929Z,94931.34
2022-08-05T20:11:19.968Z,94931.28
2022-08-05T20:14:27.027Z,94937.72
2022-08-05T20:17:32.474Z,94930.25
2022-08-05T20:20:39.777Z,94931.63
2022-08-05T20:23:51.560Z,94934.66
2022-08-05T20:26:56.391Z,94923.47
2022-08-05T20:30:00.374Z,94931.53
2022-08-05T20:33:06.548Z,94928.19
2022-08-05T20:36:11.155Z,94923.53
2022-08-05T20:39:16.787Z,94921.03
2022-08-05T20:42:21.596Z,94924.34
2022-08-05T20:45:25.054Z,94927.56
2022-08-05T20:48:51.086Z,94933.56
2022-08-05T20:51:54.584Z,94932.06
2022-08-05T20:55:15.785Z,94924.66
2022-08-05T20:58:21.163Z,94923.69
2022-08-05T21:01:31.386Z,94934.34
2022-08-05T21:04:43.207Z,94923.34
2022-08-05T21:07:51.848Z,94928.09
2022-08-05T21:10:58.489Z,94924.06
2022-08-05T21:14:02.500Z,94919.56
2022-08-05T21:17:06.815Z,94916.53
2022-08-05T21:20:12.755Z,94921.03
2022-08-05T21:23:35.909Z,94918.44
2022-08-05T21:26:41.205Z,94918.22
2022-08-05T21:29:48.322Z,94921.13
2022-08-05T21:32:51.822Z,94921.03
2022-08-05T21:35:58.964Z,94919.91
2022-08-05T21:39:02.348Z,94922.53
2022-08-05T21:42:05.904Z,94919.38
2022-08-05T21:45:10.878Z,94922.41
2022-08-05T21:48:14.121Z,94921.03
2022-08-05T21:52:15.347Z,94913.13
2022-08-05T21:54:42.262Z,94914.72
2022-08-05T21:57:45.701Z,94922.06
2022-08-05T22:00:51.481Z,94919.44
2022-08-05T22:03:55.245Z,94913.00
2022-08-05T22:07:00.652Z,94919.78
2022-08-05T22:10:04.352Z,94911.00
2022-08-05T22:13:09.279Z,94916.59
2022-08-05T22:16:50.800Z,94913.13
2022-08-05T22:20:03.033Z,94905.53
2022-08-05T22:24:01.993Z,94914.69
2022-08-05T22:27:17.416Z,94919.84
2022-08-05T22:30:20.686Z,94924.72
2022-08-05T22:33:58.343Z,94918.78
2022-08-05T22:36:47.010Z,94914.47
2022-08-05T22:39:52.768Z,94917.16
2022-08-05T22:42:58.472Z,94914.59
2022-08-05T22:46:07.269Z,94917.91
2022-08-05T22:50:17.653Z,94898.88
2022-08-05T22:52:38.340Z,94907.78
2022-08-05T22:55:57.013Z,94899.22
2022-08-05T22:59:04.043Z,94898.44
2022-08-05T23:02:29.732Z,94897.09
2022-08-05T23:05:36.047Z,94910.31
2022-08-05T23:08:39.425Z,94915.78
2022-08-05T23:11:46.971Z,94907.06
2022-08-05T23:14:53.495Z,94910.97
2022-08-05T23:18:00.509Z,94909.72
2022-08-05T23:21:05.071Z,94910.34
2022-08-05T23:24:11.498Z,94908.94
2022-08-05T23:27:17.273Z,94911.03
2022-08-05T23:30:27.102Z,94909.16
2022-08-05T23:34:05.282Z,94913.00
2022-08-05T23:36:55.465Z,94906.69
2022-08-05T23:39:58.721Z,94908.50
2022-08-05T23:43:24.328Z,94905.97
2022-08-05T23:46:27.845Z,94907.09
2022-08-05T23:49:33.932Z,94911.00
2022-08-05T23:52:49.754Z,94909.75
2022-08-05T23:55:53.928Z,94915.47
2022-08-05T23:58:58.502Z,94923.28
